< Typhoon 201409 2014 Season Typhoon 201411 >
Typhoon 201410 (MATMO)
General InformationTrack Information on Google MapsDetailed Wind InformationForecast History on Google MapsAccess Analytics MapList of All Images || NewsDisaster Info.WeblogTrackbackTyphoon FrontTwiphoonTyphoon Now!Typhoon ImaginationDisaster Info. XMLResourceGoogle EarthGE AnimationAtom FeedGeoJSON
Detalied Best Track (Time Zone = UTC)
Year Month Day Hour Lat. Long. Pressure (hPa) Wind (kt) Class Image Chart
2014 7 16 06 10.0 136.8 1006 0 2 Image Chart
2014 7 16 12 9.8 136.6 1008 0 2 Image Chart
2014 7 16 18 9.7 136.2 1006 0 2 Image Chart
2014 7 17 00 9.7 135.9 1006 0 2 Image Chart
2014 7 17 06 10.0 135.6 1006 0 2 Image Chart
2014 7 17 12 10.1 135.4 1004 35 3 Image Chart
2014 7 17 18 10.4 135.1 1000 40 3 Image Chart
2014 7 18 00 10.5 134.8 1000 40 3 Image Chart
2014 7 18 06 10.6 133.9 996 45 3 Image Chart
2014 7 18 12 10.6 133.1 996 45 3 Image Chart
2014 7 18 18 10.9 132.3 990 50 4 Image Chart
2014 7 19 00 10.9 131.5 985 55 4 Image Chart
2014 7 19 06 11.1 130.9 980 60 4 Image Chart
2014 7 19 12 11.5 130.5 980 60 4 Image Chart
2014 7 19 18 12.0 130.0 980 60 4 Image Chart
2014 7 20 00 12.9 129.6 980 60 4 Image Chart
2014 7 20 06 13.6 128.9 980 60 4 Image Chart
2014 7 20 12 14.2 128.2 980 60 4 Image Chart
2014 7 20 18 14.9 127.7 975 65 5 Image Chart
2014 7 21 00 16.2 127.3 965 70 5 Image Chart
2014 7 21 06 17.7 126.3 965 70 5 Image Chart
2014 7 21 12 18.3 125.3 965 70 5 Image Chart
2014 7 21 18 19.2 124.3 965 70 5 Image Chart
2014 7 22 00 20.4 123.7 965 70 5 Image Chart
2014 7 22 06 21.8 122.7 965 70 5 Image Chart
2014 7 22 12 22.4 122.0 965 70 5 Image Chart
2014 7 22 18 23.6 120.9 975 60 4 Image Chart
2014 7 23 00 24.5 120.2 985 50 4 Image Chart
2014 7 23 06 25.1 119.6 985 50 4 Image Chart
2014 7 23 12 25.5 118.7 985 45 3 Image Chart
2014 7 23 18 26.6 118.2 990 40 3 Image Chart
2014 7 24 00 27.9 117.7 992 35 3 Image Chart
2014 7 24 06 29.4 117.9 992 35 3 Image Chart
2014 7 24 12 30.8 118.3 992 35 3 Image Chart
2014 7 24 18 32.1 118.8 992 35 3 Image Chart
2014 7 25 00 33.4 119.7 992 35 3 Image Chart
2014 7 25 06 36.0 122.0 994 0 6 Image Chart
2014 7 25 12 37.3 123.2 994 0 6 Image Chart
2014 7 25 18 38.3 124.2 996 0 6 Image Chart
2014 7 26 00 39.6 125.8 1000 0 6 Image Chart
Japan Meteorological Agency Best Track Data | Correction Date : 2014-08-19
< Typhoon 201409 2014 Season Typhoon 201411 >

Help